sensor_id;sensor_type;location;lat;lon;timestamp;temperature;humidity
28530;DHT22;15737;49.760;6.632;2023-07-20T00:00:52;14.70;99.90
28530;DHT22;15737;49.760;6.632;2023-07-20T00:03:19;14.80;99.90
28530;DHT22;15737;49.760;6.632;2023-07-20T00:05:48;14.80;99.90
28530;DHT22;15737;49.760;6.632;2023-07-20T00:08:15;14.80;99.90
28530;DHT22;15737;49.760;6.632;2023-07-20T00:10:41;14.80;99.90
28530;DHT22;15737;49.760;6.632;2023-07-20T00:13:07;14.80;99.90
28530;DHT22;15737;49.760;6.632;2023-07-20T00:15:32;14.70;99.90
28530;DHT22;15737;49.760;6.632;2023-07-20T00:17:58;14.70;99.90
28530;DHT22;15737;49.760;6.632;2023-07-20T00:20:24;14.60;99.90
28530;DHT22;15737;49.760;6.632;2023-07-20T00:22:51;14.50;99.90
28530;DHT22;15737;49.760;6.632;2023-07-20T00:25:17;14.40;99.90
28530;DHT22;15737;49.760;6.632;2023-07-20T00:27:43;14.30;99.90
28530;DHT22;15737;49.760;6.632;2023-07-20T00:30:09;14.20;99.90
28530;DHT22;15737;49.760;6.632;2023-07-20T00:32:34;14.20;99.90
28530;DHT22;15737;49.760;6.632;2023-07-20T00:35:00;14.20;99.90
28530;DHT22;15737;49.760;6.632;2023-07-20T00:37:25;14.20;99.90
28530;DHT22;15737;49.760;6.632;2023-07-20T00:39:53;14.20;99.90
28530;DHT22;15737;49.760;6.632;2023-07-20T00:42:18;14.30;99.90
28530;DHT22;15737;49.760;6.632;2023-07-20T00:44:44;14.30;99.90
28530;DHT22;15737;49.760;6.632;2023-07-20T00:47:09;14.30;99.90
28530;DHT22;15737;49.760;6.632;2023-07-20T00:49:35;14.30;99.90
28530;DHT22;15737;49.760;6.632;2023-07-20T00:52:01;14.20;99.90
28530;DHT22;15737;49.760;6.632;2023-07-20T00:54:28;14.10;99.90
28530;DHT22;15737;49.760;6.632;2023-07-20T00:56:54;14.00;99.90
28530;DHT22;15737;49.760;6.632;2023-07-20T00:59:21;14.00;99.90
28530;DHT22;15737;49.760;6.632;2023-07-20T01:01:46;14.00;99.90
28530;DHT22;15737;49.760;6.632;2023-07-20T01:04:13;14.00;99.90
28530;DHT22;15737;49.760;6.632;2023-07-20T01:12:10;14.10;99.90
28530;DHT22;15737;49.760;6.632;2023-07-20T01:14:37;14.10;99.90
28530;DHT22;15737;49.760;6.632;2023-07-20T01:17:04;14.10;99.90
28530;DHT22;15737;49.760;6.632;2023-07-20T01:19:29;14.10;99.90
28530;DHT22;15737;49.760;6.632;2023-07-20T01:22:09;14.10;99.90
28530;DHT22;15737;49.760;6.632;2023-07-20T01:32:59;13.90;99.90
28530;DHT22;15737;49.760;6.632;2023-07-20T01:35:28;13.80;99.90
28530;DHT22;15737;49.760;6.632;2023-07-20T01:37:55;13.70;99.90
28530;DHT22;15737;49.760;6.632;2023-07-20T01:40:22;13.60;99.90
28530;DHT22;15737;49.760;6.632;2023-07-20T01:42:48;13.60;99.90
28530;DHT22;15737;49.760;6.632;2023-07-20T01:45:14;13.60;99.90
28530;DHT22;15737;49.760;6.632;2023-07-20T01:47:39;13.70;99.90
28530;DHT22;15737;49.760;6.632;2023-07-20T01:50:06;13.80;99.90
28530;DHT22;15737;49.760;6.632;2023-07-20T01:52:31;13.90;99.90
28530;DHT22;15737;49.760;6.632;2023-07-20T01:54:57;13.90;99.90
28530;DHT22;15737;49.760;6.632;2023-07-20T01:57:23;13.80;99.90
28530;DHT22;15737;49.760;6.632;2023-07-20T01:59:48;13.80;99.90
28530;DHT22;15737;49.760;6.632;2023-07-20T02:02:14;13.80;99.90
28530;DHT22;15737;49.760;6.632;2023-07-20T02:04:39;13.70;99.90
28530;DHT22;15737;49.760;6.632;2023-07-20T02:07:05;13.70;99.90
28530;DHT22;15737;49.760;6.632;2023-07-20T02:09:30;13.60;99.90
28530;DHT22;15737;49.760;6.632;2023-07-20T02:11:56;13.50;99.90
28530;DHT22;15737;49.760;6.632;2023-07-20T02:14:22;13.40;99.90
28530;DHT22;15737;49.760;6.632;2023-07-20T02:16:50;13.30;99.90
28530;DHT22;15737;49.760;6.632;2023-07-20T02:19:24;13.30;99.90
28530;DHT22;15737;49.760;6.632;2023-07-20T02:21:50;13.20;99.90
28530;DHT22;15737;49.760;6.632;2023-07-20T02:24:15;13.20;99.90
28530;DHT22;15737;49.760;6.632;2023-07-20T02:26:41;13.20;99.90
28530;DHT22;15737;49.760;6.632;2023-07-20T02:29:06;13.10;99.90
28530;DHT22;15737;49.760;6.632;2023-07-20T02:31:33;13.00;99.90
28530;DHT22;15737;49.760;6.632;2023-07-20T02:33:58;12.90;99.90
28530;DHT22;15737;49.760;6.632;2023-07-20T02:36:24;12.90;99.90
28530;DHT22;15737;49.760;6.632;2023-07-20T02:38:49;12.90;99.90
28530;DHT22;15737;49.760;6.632;2023-07-20T02:41:15;12.90;99.90
28530;DHT22;15737;49.760;6.632;2023-07-20T02:43:40;12.90;99.90
28530;DHT22;15737;49.760;6.632;2023-07-20T02:46:06;12.90;99.90
28530;DHT22;15737;49.760;6.632;2023-07-20T02:48:31;12.80;99.90
28530;DHT22;15737;49.760;6.632;2023-07-20T02:50:57;12.80;99.90
28530;DHT22;15737;49.760;6.632;2023-07-20T02:53:22;12.80;99.90
28530;DHT22;15737;49.760;6.632;2023-07-20T02:55:48;12.90;99.90
28530;DHT22;15737;49.760;6.632;2023-07-20T02:58:13;12.90;99.90
28530;DHT22;15737;49.760;6.632;2023-07-20T03:00:39;12.90;99.90
28530;DHT22;15737;49.760;6.632;2023-07-20T03:03:04;12.80;99.90
28530;DHT22;15737;49.760;6.632;2023-07-20T03:05:34;12.80;99.90
28530;DHT22;15737;49.760;6.632;2023-07-20T03:08:00;12.70;99.90
28530;DHT22;15737;49.760;6.632;2023-07-20T03:10:28;12.60;99.90
28530;DHT22;15737;49.760;6.632;2023-07-20T03:12:53;12.60;99.90
28530;DHT22;15737;49.760;6.632;2023-07-20T03:15:19;12.50;99.90
28530;DHT22;15737;49.760;6.632;2023-07-20T03:17:44;12.50;99.90
28530;DHT22;15737;49.760;6.632;2023-07-20T03:20:10;12.40;99.90
28530;DHT22;15737;49.760;6.632;2023-07-20T03:22:38;12.40;99.90
28530;DHT22;15737;49.760;6.632;2023-07-20T03:25:04;12.30;99.90
28530;DHT22;15737;49.760;6.632;2023-07-20T03:27:29;12.20;99.90
28530;DHT22;15737;49.760;6.632;2023-07-20T03:29:55;12.20;99.90
28530;DHT22;15737;49.760;6.632;2023-07-20T03:32:20;12.10;99.90
28530;DHT22;15737;49.760;6.632;2023-07-20T03:34:46;12.10;99.90
28530;DHT22;15737;49.760;6.632;2023-07-20T03:39:42;12.00;99.90
28530;DHT22;15737;49.760;6.632;2023-07-20T03:42:08;11.90;99.90
28530;DHT22;15737;49.760;6.632;2023-07-20T03:44:33;11.90;99.90
28530;DHT22;15737;49.760;6.632;2023-07-20T03:46:59;11.90;99.90
28530;DHT22;15737;49.760;6.632;2023-07-20T03:49:24;11.90;99.90
28530;DHT22;15737;49.760;6.632;2023-07-20T03:51:50;11.90;99.90
28530;DHT22;15737;49.760;6.632;2023-07-20T03:54:15;11.90;99.90
28530;DHT22;15737;49.760;6.632;2023-07-20T03:56:41;11.90;99.90
28530;DHT22;15737;49.760;6.632;2023-07-20T03:59:07;11.80;99.90
28530;DHT22;15737;49.760;6.632;2023-07-20T04:01:32;11.80;99.90
28530;DHT22;15737;49.760;6.632;2023-07-20T04:04:05;11.80;99.90
28530;DHT22;15737;49.760;6.632;2023-07-20T04:06:31;11.90;99.90
28530;DHT22;15737;49.760;6.632;2023-07-20T04:08:57;11.90;99.90
28530;DHT22;15737;49.760;6.632;2023-07-20T04:11:22;11.90;99.90
28530;DHT22;15737;49.760;6.632;2023-07-20T04:13:48;12.00;99.90
28530;DHT22;15737;49.760;6.632;2023-07-20T04:16:13;12.00;99.90
28530;DHT22;15737;49.760;6.632;2023-07-20T04:18:39;12.10;99.90
28530;DHT22;15737;49.760;6.632;2023-07-20T04:21:05;12.20;99.90
28530;DHT22;15737;49.760;6.632;2023-07-20T04:23:30;12.30;99.90
28530;DHT22;15737;49.760;6.632;2023-07-20T04:25:56;12.50;99.90
28530;DHT22;15737;49.760;6.632;2023-07-20T04:28:22;12.60;99.90
28530;DHT22;15737;49.760;6.632;2023-07-20T04:30:49;12.60;99.90
28530;DHT22;15737;49.760;6.632;2023-07-20T04:33:16;12.80;99.90
28530;DHT22;15737;49.760;6.632;2023-07-20T04:35:48;13.00;99.90
28530;DHT22;15737;49.760;6.632;2023-07-20T04:38:14;13.20;99.90
28530;DHT22;15737;49.760;6.632;2023-07-20T04:40:47;13.50;99.90
28530;DHT22;15737;49.760;6.632;2023-07-20T04:43:17;13.80;99.90
28530;DHT22;15737;49.760;6.632;2023-07-20T04:45:42;14.10;99.90
28530;DHT22;15737;49.760;6.632;2023-07-20T04:48:10;14.40;99.90
28530;DHT22;15737;49.760;6.632;2023-07-20T04:50:37;14.60;99.90
28530;DHT22;15737;49.760;6.632;2023-07-20T04:53:03;14.70;99.90
28530;DHT22;15737;49.760;6.632;2023-07-20T04:55:28;14.70;99.90
28530;DHT22;15737;49.760;6.632;2023-07-20T04:57:54;14.90;99.90
28530;DHT22;15737;49.760;6.632;2023-07-20T05:00:20;15.30;99.90
28530;DHT22;15737;49.760;6.632;2023-07-20T05:02:47;15.80;99.90
28530;DHT22;15737;49.760;6.632;2023-07-20T05:05:14;16.30;99.90
28530;DHT22;15737;49.760;6.632;2023-07-20T05:07:40;16.80;99.90
28530;DHT22;15737;49.760;6.632;2023-07-20T05:10:06;17.20;99.90
28530;DHT22;15737;49.760;6.632;2023-07-20T05:12:32;17.70;99.90
28530;DHT22;15737;49.760;6.632;2023-07-20T05:14:58;18.20;99.90
28530;DHT22;15737;49.760;6.632;2023-07-20T05:17:23;18.30;99.90
28530;DHT22;15737;49.760;6.632;2023-07-20T05:19:50;18.50;99.90
28530;DHT22;15737;49.760;6.632;2023-07-20T05:22:16;18.90;99.90
28530;DHT22;15737;49.760;6.632;2023-07-20T05:24:42;19.30;99.90
28530;DHT22;15737;49.760;6.632;2023-07-20T05:27:08;19.90;99.90
28530;DHT22;15737;49.760;6.632;2023-07-20T05:29:33;20.50;99.90
28530;DHT22;15737;49.760;6.632;2023-07-20T05:31:59;21.00;99.90
28530;DHT22;15737;49.760;6.632;2023-07-20T05:34:24;21.90;99.90
28530;DHT22;15737;49.760;6.632;2023-07-20T05:37:10;22.70;99.90
28530;DHT22;15737;49.760;6.632;2023-07-20T05:39:36;23.20;97.40
28530;DHT22;15737;49.760;6.632;2023-07-20T05:42:01;23.20;95.80
28530;DHT22;15737;49.760;6.632;2023-07-20T05:44:27;23.10;95.10
28530;DHT22;15737;49.760;6.632;2023-07-20T05:46:52;22.90;94.50
28530;DHT22;15737;49.760;6.632;2023-07-20T05:49:18;22.90;94.10
28530;DHT22;15737;49.760;6.632;2023-07-20T05:51:43;22.90;93.50
28530;DHT22;15737;49.760;6.632;2023-07-20T05:54:09;23.00;93.30
28530;DHT22;15737;49.760;6.632;2023-07-20T05:56:34;23.20;92.60
28530;DHT22;15737;49.760;6.632;2023-07-20T05:59:00;23.80;91.10
28530;DHT22;15737;49.760;6.632;2023-07-20T06:01:25;24.30;89.30
28530;DHT22;15737;49.760;6.632;2023-07-20T06:03:53;24.70;86.40
28530;DHT22;15737;49.760;6.632;2023-07-20T06:06:19;24.80;84.90
28530;DHT22;15737;49.760;6.632;2023-07-20T06:08:44;24.10;85.20
28530;DHT22;15737;49.760;6.632;2023-07-20T06:11:10;23.30;88.90
28530;DHT22;15737;49.760;6.632;2023-07-20T06:13:36;24.90;85.10
28530;DHT22;15737;49.760;6.632;2023-07-20T06:16:02;25.10;81.80
28530;DHT22;15737;49.760;6.632;2023-07-20T06:18:29;23.70;86.10
28530;DHT22;15737;49.760;6.632;2023-07-20T06:20:55;23.00;87.20
28530;DHT22;15737;49.760;6.632;2023-07-20T06:23:21;22.50;89.20
28530;DHT22;15737;49.760;6.632;2023-07-20T06:25:47;22.90;87.50
28530;DHT22;15737;49.760;6.632;2023-07-20T06:28:13;24.30;84.00
28530;DHT22;15737;49.760;6.632;2023-07-20T06:30:39;26.40;76.70
28530;DHT22;15737;49.760;6.632;2023-07-20T06:33:05;27.10;73.30
28530;DHT22;15737;49.760;6.632;2023-07-20T06:35:30;26.00;77.70
28530;DHT22;15737;49.760;6.632;2023-07-20T06:37:56;27.00;74.60
28530;DHT22;15737;49.760;6.632;2023-07-20T06:40:23;28.50;69.70
28530;DHT22;15737;49.760;6.632;2023-07-20T06:42:48;30.20;64.00
28530;DHT22;15737;49.760;6.632;2023-07-20T06:45:14;30.90;59.20
28530;DHT22;15737;49.760;6.632;2023-07-20T06:47:40;31.70;57.30
28530;DHT22;15737;49.760;6.632;2023-07-20T06:50:06;32.90;54.70
28530;DHT22;15737;49.760;6.632;2023-07-20T06:52:32;34.60;51.50
28530;DHT22;15737;49.760;6.632;2023-07-20T06:54:58;35.10;49.30
28530;DHT22;15737;49.760;6.632;2023-07-20T06:57:23;35.60;48.00
28530;DHT22;15737;49.760;6.632;2023-07-20T06:59:49;36.20;47.20
28530;DHT22;15737;49.760;6.632;2023-07-20T07:02:14;37.30;45.20
28530;DHT22;15737;49.760;6.632;2023-07-20T07:04:41;38.20;43.00
28530;DHT22;15737;49.760;6.632;2023-07-20T07:07:07;37.20;43.10
28530;DHT22;15737;49.760;6.632;2023-07-20T07:09:32;36.30;42.60
28530;DHT22;15737;49.760;6.632;2023-07-20T07:11:58;35.40;44.10
28530;DHT22;15737;49.760;6.632;2023-07-20T07:14:25;36.10;43.40
28530;DHT22;15737;49.760;6.632;2023-07-20T07:16:50;37.30;42.30
28530;DHT22;15737;49.760;6.632;2023-07-20T07:19:15;35.70;43.70
28530;DHT22;15737;49.760;6.632;2023-07-20T07:21:41;34.30;45.50
28530;DHT22;15737;49.760;6.632;2023-07-20T07:24:08;34.10;46.30
28530;DHT22;15737;49.760;6.632;2023-07-20T07:26:36;34.80;45.50
28530;DHT22;15737;49.760;6.632;2023-07-20T07:29:01;34.20;45.60
28530;DHT22;15737;49.760;6.632;2023-07-20T07:31:28;33.30;46.80
28530;DHT22;15737;49.760;6.632;2023-07-20T07:33:53;33.20;46.80
28530;DHT22;15737;49.760;6.632;2023-07-20T07:36:19;33.70;46.20
28530;DHT22;15737;49.760;6.632;2023-07-20T07:38:45;34.20;45.20
28530;DHT22;15737;49.760;6.632;2023-07-20T07:41:10;33.90;45.30
28530;DHT22;15737;49.760;6.632;2023-07-20T07:43:36;34.00;45.40
28530;DHT22;15737;49.760;6.632;2023-07-20T07:48:31;33.40;46.30
28530;DHT22;15737;49.760;6.632;2023-07-20T07:50:57;34.50;45.10
28530;DHT22;15737;49.760;6.632;2023-07-20T07:53:22;35.80;42.90
28530;DHT22;15737;49.760;6.632;2023-07-20T07:55:51;36.60;41.80
28530;DHT22;15737;49.760;6.632;2023-07-20T07:58:16;37.50;40.60
28530;DHT22;15737;49.760;6.632;2023-07-20T08:00:42;37.90;39.40
28530;DHT22;15737;49.760;6.632;2023-07-20T08:03:08;38.40;39.40
28530;DHT22;15737;49.760;6.632;2023-07-20T08:05:34;38.50;38.90
28530;DHT22;15737;49.760;6.632;2023-07-20T08:08:01;36.80;40.90
28530;DHT22;15737;49.760;6.632;2023-07-20T08:10:27;35.40;42.80
28530;DHT22;15737;49.760;6.632;2023-07-20T08:12:52;36.10;41.90
28530;DHT22;15737;49.760;6.632;2023-07-20T08:15:18;36.00;42.10
28530;DHT22;15737;49.760;6.632;2023-07-20T08:17:43;35.70;41.50
28530;DHT22;15737;49.760;6.632;2023-07-20T08:20:10;36.00;41.10
28530;DHT22;15737;49.760;6.632;2023-07-20T08:22:38;37.50;40.10
28530;DHT22;15737;49.760;6.632;2023-07-20T08:25:05;39.60;38.10
28530;DHT22;15737;49.760;6.632;2023-07-20T08:27:31;39.50;38.50
28530;DHT22;15737;49.760;6.632;2023-07-20T08:29:57;36.70;41.30
28530;DHT22;15737;49.760;6.632;2023-07-20T08:32:22;34.60;44.20
28530;DHT22;15737;49.760;6.632;2023-07-20T08:34:48;32.50;46.40
28530;DHT22;15737;49.760;6.632;2023-07-20T08:37:13;33.40;44.70
28530;DHT22;15737;49.760;6.632;2023-07-20T08:39:39;34.20;43.50
28530;DHT22;15737;49.760;6.632;2023-07-20T08:42:05;32.70;45.50
28530;DHT22;15737;49.760;6.632;2023-07-20T08:44:35;31.90;47.00
28530;DHT22;15737;49.760;6.632;2023-07-20T08:47:02;33.50;45.30
28530;DHT22;15737;49.760;6.632;2023-07-20T08:49:31;34.80;43.60
28530;DHT22;15737;49.760;6.632;2023-07-20T08:51:57;34.10;44.10
28530;DHT22;15737;49.760;6.632;2023-07-20T08:54:24;34.80;43.70
28530;DHT22;15737;49.760;6.632;2023-07-20T08:56:54;36.20;40.60
28530;DHT22;15737;49.760;6.632;2023-07-20T08:59:23;32.30;44.70
28530;DHT22;15737;49.760;6.632;2023-07-20T09:01:50;30.20;48.60
28530;DHT22;15737;49.760;6.632;2023-07-20T09:04:17;31.70;46.70
28530;DHT22;15737;49.760;6.632;2023-07-20T09:06:43;31.10;47.80
28530;DHT22;15737;49.760;6.632;2023-07-20T09:09:08;29.60;50.30
28530;DHT22;15737;49.760;6.632;2023-07-20T09:11:34;29.20;51.70
28530;DHT22;15737;49.760;6.632;2023-07-20T09:14:06;31.80;48.10
28530;DHT22;15737;49.760;6.632;2023-07-20T09:16:32;32.70;46.30
28530;DHT22;15737;49.760;6.632;2023-07-20T09:18:58;30.70;48.10
28530;DHT22;15737;49.760;6.632;2023-07-20T09:21:29;28.80;51.30
28530;DHT22;15737;49.760;6.632;2023-07-20T09:23:56;29.30;51.00
28530;DHT22;15737;49.760;6.632;2023-07-20T09:26:22;32.00;47.10
28530;DHT22;15737;49.760;6.632;2023-07-20T09:28:50;35.30;43.20
28530;DHT22;15737;49.760;6.632;2023-07-20T09:31:18;38.00;40.00
28530;DHT22;15737;49.760;6.632;2023-07-20T09:33:44;38.60;39.30
28530;DHT22;15737;49.760;6.632;2023-07-20T09:36:10;37.70;39.30
28530;DHT22;15737;49.760;6.632;2023-07-20T09:38:41;34.70;42.70
28530;DHT22;15737;49.760;6.632;2023-07-20T09:41:07;32.50;46.20
28530;DHT22;15737;49.760;6.632;2023-07-20T09:43:36;30.40;48.40
28530;DHT22;15737;49.760;6.632;2023-07-20T09:46:02;28.90;51.30
28530;DHT22;15737;49.760;6.632;2023-07-20T09:48:29;30.20;49.80
28530;DHT22;15737;49.760;6.632;2023-07-20T09:50:56;30.80;48.50
28530;DHT22;15737;49.760;6.632;2023-07-20T09:53:24;31.90;47.20
28530;DHT22;15737;49.760;6.632;2023-07-20T09:55:52;33.70;44.30
28530;DHT22;15737;49.760;6.632;2023-07-20T09:58:21;35.20;42.70
28530;DHT22;15737;49.760;6.632;2023-07-20T10:00:48;34.30;42.30
28530;DHT22;15737;49.760;6.632;2023-07-20T10:03:19;32.30;45.00
28530;DHT22;15737;49.760;6.632;2023-07-20T10:06:06;30.50;47.80
28530;DHT22;15737;49.760;6.632;2023-07-20T10:08:36;29.20;50.10
28530;DHT22;15737;49.760;6.632;2023-07-20T10:11:05;29.00;50.20
28530;DHT22;15737;49.760;6.632;2023-07-20T10:13:38;30.70;47.90
28530;DHT22;15737;49.760;6.632;2023-07-20T10:16:07;33.60;44.60
28530;DHT22;15737;49.760;6.632;2023-07-20T10:18:41;35.50;42.10
28530;DHT22;15737;49.760;6.632;2023-07-20T10:21:10;35.80;41.00
28530;DHT22;15737;49.760;6.632;2023-07-20T10:23:35;35.80;41.20
28530;DHT22;15737;49.760;6.632;2023-07-20T10:26:01;33.40;43.10
28530;DHT22;15737;49.760;6.632;2023-07-20T10:28:28;30.60;46.90
28530;DHT22;15737;49.760;6.632;2023-07-20T10:30:54;28.80;49.80
28530;DHT22;15737;49.760;6.632;2023-07-20T10:33:20;27.50;51.90
28530;DHT22;15737;49.760;6.632;2023-07-20T10:35:54;26.60;52.70
28530;DHT22;15737;49.760;6.632;2023-07-20T10:38:37;27.80;51.10
28530;DHT22;15737;49.760;6.632;2023-07-20T10:41:03;29.40;48.00
28530;DHT22;15737;49.760;6.632;2023-07-20T10:43:29;31.10;45.70
28530;DHT22;15737;49.760;6.632;2023-07-20T10:45:55;31.70;44.40
28530;DHT22;15737;49.760;6.632;2023-07-20T10:48:25;30.70;45.50
28530;DHT22;15737;49.760;6.632;2023-07-20T10:51:12;29.80;47.10
28530;DHT22;15737;49.760;6.632;2023-07-20T10:53:41;28.10;49.50
28530;DHT22;15737;49.760;6.632;2023-07-20T10:56:11;27.20;51.40
28530;DHT22;15737;49.760;6.632;2023-07-20T10:58:36;27.70;50.40
28530;DHT22;15737;49.760;6.632;2023-07-20T11:01:04;29.40;48.40
28530;DHT22;15737;49.760;6.632;2023-07-20T11:03:33;31.40;46.00
28530;DHT22;15737;49.760;6.632;2023-07-20T11:05:59;31.00;45.80
28530;DHT22;15737;49.760;6.632;2023-07-20T11:08:41;30.00;46.70
28530;DHT22;15737;49.760;6.632;2023-07-20T11:11:27;29.00;48.30
28530;DHT22;15737;49.760;6.632;2023-07-20T11:14:04;28.00;49.90
28530;DHT22;15737;49.760;6.632;2023-07-20T11:16:56;27.80;50.40
28530;DHT22;15737;49.760;6.632;2023-07-20T11:19:35;28.40;49.90
28530;DHT22;15737;49.760;6.632;2023-07-20T11:22:04;28.00;50.10
28530;DHT22;15737;49.760;6.632;2023-07-20T11:24:33;27.40;50.70
28530;DHT22;15737;49.760;6.632;2023-07-20T11:26:59;26.90;51.30
28530;DHT22;15737;49.760;6.632;2023-07-20T11:29:26;26.70;52.00
28530;DHT22;15737;49.760;6.632;2023-07-20T11:31:52;26.50;52.40
28530;DHT22;15737;49.760;6.632;2023-07-20T11:34:20;26.30;52.80
28530;DHT22;15737;49.760;6.632;2023-07-20T11:36:48;26.10;53.30
28530;DHT22;15737;49.760;6.632;2023-07-20T11:39:15;26.20;53.10
28530;DHT22;15737;49.760;6.632;2023-07-20T11:41:47;26.50;52.70
28530;DHT22;15737;49.760;6.632;2023-07-20T11:44:13;26.80;52.00
28530;DHT22;15737;49.760;6.632;2023-07-20T11:46:42;26.60;52.10
28530;DHT22;15737;49.760;6.632;2023-07-20T11:49:09;27.40;51.70
28530;DHT22;15737;49.760;6.632;2023-07-20T11:51:36;29.10;49.60
28530;DHT22;15737;49.760;6.632;2023-07-20T11:54:03;30.80;47.70
28530;DHT22;15737;49.760;6.632;2023-07-20T11:56:29;32.10;45.00
28530;DHT22;15737;49.760;6.632;2023-07-20T11:58:57;31.90;44.40
28530;DHT22;15737;49.760;6.632;2023-07-20T12:01:25;30.80;44.90
28530;DHT22;15737;49.760;6.632;2023-07-20T12:03:55;30.80;45.70
28530;DHT22;15737;49.760;6.632;2023-07-20T12:06:26;31.60;44.90
28530;DHT22;15737;49.760;6.632;2023-07-20T12:08:54;30.60;45.90
28530;DHT22;15737;49.760;6.632;2023-07-20T12:14:02;29.30;46.70
28530;DHT22;15737;49.760;6.632;2023-07-20T12:16:28;29.40;45.60
28530;DHT22;15737;49.760;6.632;2023-07-20T12:19:05;29.80;46.00
28530;DHT22;15737;49.760;6.632;2023-07-20T12:21:31;30.90;44.80
28530;DHT22;15737;49.760;6.632;2023-07-20T12:23:57;31.10;43.10
28530;DHT22;15737;49.760;6.632;2023-07-20T12:26:24;31.20;43.00
28530;DHT22;15737;49.760;6.632;2023-07-20T12:28:51;32.10;42.20
28530;DHT22;15737;49.760;6.632;2023-07-20T12:31:16;32.20;42.20
28530;DHT22;15737;49.760;6.632;2023-07-20T12:33:42;32.40;42.10
28530;DHT22;15737;49.760;6.632;2023-07-20T12:36:09;32.50;39.40
28530;DHT22;15737;49.760;6.632;2023-07-20T12:38:35;31.30;39.60
28530;DHT22;15737;49.760;6.632;2023-07-20T12:41:02;29.50;41.50
28530;DHT22;15737;49.760;6.632;2023-07-20T12:43:28;27.90;43.70
28530;DHT22;15737;49.760;6.632;2023-07-20T12:45:55;27.70;44.50
28530;DHT22;15737;49.760;6.632;2023-07-20T12:48:20;28.20;44.10
28530;DHT22;15737;49.760;6.632;2023-07-20T12:50:46;28.50;43.00
28530;DHT22;15737;49.760;6.632;2023-07-20T12:53:12;29.40;42.60
28530;DHT22;15737;49.760;6.632;2023-07-20T12:55:37;30.50;42.20
28530;DHT22;15737;49.760;6.632;2023-07-20T12:58:03;30.80;42.20
28530;DHT22;15737;49.760;6.632;2023-07-20T13:00:29;31.70;41.70
28530;DHT22;15737;49.760;6.632;2023-07-20T13:02:55;32.70;40.80
28530;DHT22;15737;49.760;6.632;2023-07-20T13:05:20;31.60;41.40
28530;DHT22;15737;49.760;6.632;2023-07-20T13:07:46;30.50;43.20
28530;DHT22;15737;49.760;6.632;2023-07-20T13:10:11;30.40;43.40
28530;DHT22;15737;49.760;6.632;2023-07-20T13:12:38;30.10;43.40
28530;DHT22;15737;49.760;6.632;2023-07-20T13:15:05;29.70;44.00
28530;DHT22;15737;49.760;6.632;2023-07-20T13:17:32;29.90;44.10
28530;DHT22;15737;49.760;6.632;2023-07-20T13:19:58;30.60;43.70
28530;DHT22;15737;49.760;6.632;2023-07-20T13:22:24;30.80;42.90
28530;DHT22;15737;49.760;6.632;2023-07-20T13:24:49;30.90;42.40
28530;DHT22;15737;49.760;6.632;2023-07-20T13:27:16;30.50;42.30
28530;DHT22;15737;49.760;6.632;2023-07-20T13:29:42;29.50;42.90
28530;DHT22;15737;49.760;6.632;2023-07-20T13:32:08;28.50;44.40
28530;DHT22;15737;49.760;6.632;2023-07-20T13:34:34;28.10;44.80
28530;DHT22;15737;49.760;6.632;2023-07-20T13:37:00;27.60;45.60
28530;DHT22;15737;49.760;6.632;2023-07-20T13:39:26;27.40;45.70
28530;DHT22;15737;49.760;6.632;2023-07-20T13:41:52;27.70;45.90
28530;DHT22;15737;49.760;6.632;2023-07-20T13:44:19;28.30;45.60
28530;DHT22;15737;49.760;6.632;2023-07-20T13:46:46;29.00;44.80
28530;DHT22;15737;49.760;6.632;2023-07-20T13:49:11;29.30;43.60
28530;DHT22;15737;49.760;6.632;2023-07-20T13:51:37;29.30;43.20
28530;DHT22;15737;49.760;6.632;2023-07-20T13:54:02;29.00;42.50
28530;DHT22;15737;49.760;6.632;2023-07-20T13:56:28;29.20;42.40
28530;DHT22;15737;49.760;6.632;2023-07-20T13:58:54;29.70;42.30
28530;DHT22;15737;49.760;6.632;2023-07-20T14:01:19;30.40;42.30
28530;DHT22;15737;49.760;6.632;2023-07-20T14:03:45;30.10;42.20
28530;DHT22;15737;49.760;6.632;2023-07-20T14:06:11;29.30;43.00
28530;DHT22;15737;49.760;6.632;2023-07-20T14:08:38;29.00;42.90
28530;DHT22;15737;49.760;6.632;2023-07-20T14:11:04;28.20;44.00
28530;DHT22;15737;49.760;6.632;2023-07-20T14:13:29;28.20;44.90
28530;DHT22;15737;49.760;6.632;2023-07-20T14:15:55;29.20;44.40
28530;DHT22;15737;49.760;6.632;2023-07-20T14:18:21;30.60;43.40
28530;DHT22;15737;49.760;6.632;2023-07-20T14:20:46;31.10;42.40
28530;DHT22;15737;49.760;6.632;2023-07-20T14:23:12;30.40;42.80
28530;DHT22;15737;49.760;6.632;2023-07-20T14:25:37;30.00;43.70
28530;DHT22;15737;49.760;6.632;2023-07-20T14:28:03;30.00;43.20
28530;DHT22;15737;49.760;6.632;2023-07-20T14:30:36;30.10;43.40
28530;DHT22;15737;49.760;6.632;2023-07-20T14:33:04;30.90;43.60
28530;DHT22;15737;49.760;6.632;2023-07-20T14:35:29;31.90;42.20
28530;DHT22;15737;49.760;6.632;2023-07-20T14:37:55;32.50;40.40
28530;DHT22;15737;49.760;6.632;2023-07-20T14:40:20;31.60;38.90
28530;DHT22;15737;49.760;6.632;2023-07-20T14:42:46;30.30;40.10
28530;DHT22;15737;49.760;6.632;2023-07-20T14:45:12;29.20;41.40
28530;DHT22;15737;49.760;6.632;2023-07-20T14:47:37;28.60;42.20
28530;DHT22;15737;49.760;6.632;2023-07-20T14:50:03;28.10;42.80
28530;DHT22;15737;49.760;6.632;2023-07-20T14:52:30;27.70;43.30
28530;DHT22;15737;49.760;6.632;2023-07-20T14:54:55;27.60;43.40
28530;DHT22;15737;49.760;6.632;2023-07-20T14:57:21;27.50;43.70
28530;DHT22;15737;49.760;6.632;2023-07-20T14:59:49;27.60;44.10
28530;DHT22;15737;49.760;6.632;2023-07-20T15:02:15;28.20;43.60
28530;DHT22;15737;49.760;6.632;2023-07-20T15:04:50;28.20;43.80
28530;DHT22;15737;49.760;6.632;2023-07-20T15:07:17;28.40;43.90
28530;DHT22;15737;49.760;6.632;2023-07-20T15:09:43;28.30;44.10
28530;DHT22;15737;49.760;6.632;2023-07-20T15:12:09;28.40;43.90
28530;DHT22;15737;49.760;6.632;2023-07-20T15:14:35;28.00;44.10
28530;DHT22;15737;49.760;6.632;2023-07-20T15:17:01;27.80;44.70
28530;DHT22;15737;49.760;6.632;2023-07-20T15:19:26;27.60;45.00
28530;DHT22;15737;49.760;6.632;2023-07-20T15:21:52;27.60;45.40
28530;DHT22;15737;49.760;6.632;2023-07-20T15:24:17;27.60;45.30
28530;DHT22;15737;49.760;6.632;2023-07-20T15:26:43;28.00;45.10
28530;DHT22;15737;49.760;6.632;2023-07-20T15:29:08;28.30;44.80
28530;DHT22;15737;49.760;6.632;2023-07-20T15:31:34;29.00;44.30
28530;DHT22;15737;49.760;6.632;2023-07-20T15:34:01;29.60;43.80
28530;DHT22;15737;49.760;6.632;2023-07-20T15:36:26;29.70;43.40
28530;DHT22;15737;49.760;6.632;2023-07-20T15:38:52;29.50;42.70
28530;DHT22;15737;49.760;6.632;2023-07-20T15:41:17;28.90;43.40
28530;DHT22;15737;49.760;6.632;2023-07-20T15:43:43;28.30;44.30
28530;DHT22;15737;49.760;6.632;2023-07-20T15:49:04;27.70;44.80
28530;DHT22;15737;49.760;6.632;2023-07-20T15:51:30;27.20;45.10